Terminal Aerodrome Forecast
Issued by NWS Mt. Holly, NJ

Home | Current Version | Previous Version | Text Only | Print | Product List | Glossary On
Versions: 1 2 3 4 5 6 7 8 9 10 11 12 13
000
FTUS41 KPHI 220500
TAFTTN
TAF
KTTN 220532Z 2206/2306 00000KT P6SM SKC
     FM221300 23006KT P6SM FEW050
      TEMPO 2217/2219 BKN050
     FM222100 21007KT P6SM FEW250=

USA.gov is the U.S. government's official web portal to all federal, state and local government web resources and services.